Ana Sayfa
METAR-TAF:

METAR-TAF

Havaalanları :

Rexburg-Madison County Airport

Rexburg, Idaho, Amerika Birleşik Devletleri

Enlem: 43-49-54N, Boylam: 111-48-22W, yükseklik: 1481 m

Güncel hava durumu gözlemi

Rapor saat 10:53 UTC de 32 dakika önce yapıldı.
Sakin rüzgar
Sıcaklık -3°C
Nem 93%
Basınç 1020 hPa
Görüş mesafesi: 12.9 km
4400 ft yükseklikte çok bulutlu

METAR: KRXE 241053Z AUTO 00000KT 8SM OVC044 M03/M04 A3013 RMK AO2 SLP231 T10281039 $

Saat: 04:25 (11:25 UTC)


TAF: eksik

4.000'den fazla havaalanı için hava durumu gözlemleri ve tahminleri (METAR ve TAF raporları).

Kullanılabilir istasyonlar harita üzerinde sarı ve kırmızı noktalarla gösterilir.

İstasyonun adını görmek için fareyi noktanın üzerinde gezdirin.

Sonrasında hava gözlem ve tahminlerini görmek için tıklayın.

Haritayı değiştirmek için: yaklaştırmak için siyah artı işaretli yeşil düğmeye ve uzaklaştırmak için de eksi işaretli düğmeye hızla tıklayın; bitişik haritalar için yeşil okları kullanın.


METAR-TAF: